createdAt,value
2017-05-09T00:00:07.250Z,98.34
2017-05-09T00:01:20.051Z,98.14
2017-05-09T00:02:32.848Z,98.05
2017-05-09T00:03:45.649Z,98.44
2017-05-09T00:04:58.633Z,98.24
2017-05-09T00:06:10.936Z,97.96
2017-05-09T00:07:23.717Z,98.92
2017-05-09T00:08:36.546Z,98.24
2017-05-09T00:09:49.335Z,98.54
2017-05-09T00:11:02.129Z,98.49
2017-05-09T00:12:14.909Z,98.34
2017-05-09T00:13:27.739Z,98.14
2017-05-09T00:14:40.042Z,98.1
2017-05-09T00:15:52.829Z,97.96
2017-05-09T00:17:05.614Z,98.49
2017-05-09T00:18:18.400Z,98.1
2017-05-09T00:19:30.709Z,98.29
2017-05-09T00:20:43.690Z,98.39
2017-05-09T00:21:55.992Z,98.1
2017-05-09T00:23:08.777Z,97.96
2017-05-09T00:24:21.091Z,97.96
2017-05-09T00:25:33.874Z,98.19
2017-05-09T00:26:46.375Z,98.24
2017-05-09T00:27:59.166Z,98.39
2017-05-09T00:29:11.474Z,98.1
2017-05-09T00:30:24.259Z,98.39
2017-05-09T00:31:37.244Z,98.49
2017-05-09T00:32:50.033Z,98.39
2017-05-09T00:34:02.826Z,98.44
2017-05-09T00:35:15.129Z,98.39
2017-05-09T00:36:27.919Z,98.82
2017-05-09T00:37:40.700Z,98.72
2017-05-09T00:38:53.490Z,98.63
2017-05-09T00:40:06.276Z,99.11
2017-05-09T00:41:19.077Z,99.21
2017-05-09T00:42:32.063Z,99.3
2017-05-09T00:43:43.890Z,99.11
2017-05-09T00:44:56.674Z,99.49
2017-05-09T00:46:09.460Z,99.88
2017-05-09T00:47:21.281Z,99.88
2017-05-09T00:48:34.065Z,99.99
2017-05-09T00:49:46.857Z,99.99
2017-05-09T00:50:59.216Z,99.98
2017-05-09T00:52:12.012Z,99.99
2017-05-09T00:53:24.524Z,99.99
2017-05-09T00:54:37.326Z,99.88
2017-05-09T00:55:50.120Z,99.99
2017-05-09T00:57:02.438Z,99.99
2017-05-09T00:58:14.750Z,99.88
2017-05-09T00:59:27.256Z,99.99
2017-05-09T01:00:40.047Z,99.98
2017-05-09T01:01:52.363Z,99.99
2017-05-09T01:03:05.158Z,99.78
2017-05-09T01:04:17.670Z,99.98
2017-05-09T01:05:30.459Z,99.78
2017-05-09T01:06:42.772Z,99.69
2017-05-09T01:07:55.566Z,99.99
2017-05-09T01:09:08.351Z,99.88
2017-05-09T01:10:21.335Z,99.4
2017-05-09T01:11:34.118Z,99.98
2017-05-09T01:12:46.911Z,99.99
2017-05-09T01:13:59.223Z,99.98
2017-05-09T01:15:12.315Z,99.99
2017-05-09T01:16:24.624Z,99.99
2017-05-09T01:17:37.421Z,99.99
2017-05-09T01:18:50.226Z,99.99
2017-05-09T01:20:03.059Z,99.88
2017-05-09T01:21:15.563Z,99.99
2017-05-09T01:22:28.355Z,99.99
2017-05-09T01:23:40.186Z,99.99
2017-05-09T01:24:52.492Z,99.99
2017-05-09T01:26:05.477Z,99.88
2017-05-09T01:27:18.264Z,99.88
2017-05-09T01:28:31.062Z,99.99
2017-05-09T01:29:43.851Z,99.99
2017-05-09T01:30:56.641Z,99.99
2017-05-09T01:32:09.673Z,99.99
2017-05-09T01:33:21.995Z,99.99
2017-05-09T01:34:34.803Z,99.99
2017-05-09T01:35:47.623Z,99.99
2017-05-09T01:37:00.427Z,99.99
2017-05-09T01:38:12.752Z,99.99
2017-05-09T01:39:25.567Z,99.99
2017-05-09T01:40:37.886Z,99.99
2017-05-09T01:41:50.679Z,99.99
2017-05-09T01:43:03.670Z,99.99
2017-05-09T01:44:16.466Z,99.99
2017-05-09T01:45:29.461Z,99.99
2017-05-09T01:46:41.768Z,99.99
2017-05-09T01:47:54.754Z,99.99
2017-05-09T01:49:07.541Z,99.99
2017-05-09T01:50:20.342Z,99.99
2017-05-09T01:51:33.126Z,99.99
2017-05-09T01:52:45.927Z,99.99
2017-05-09T01:53:58.918Z,99.99
2017-05-09T01:55:11.715Z,99.99
2017-05-09T01:56:24.509Z,99.99
2017-05-09T01:57:37.306Z,99.99
2017-05-09T01:58:49.815Z,99.99
2017-05-09T02:00:02.618Z,99.99
2017-05-09T02:01:14.925Z,99.99
2017-05-09T02:02:27.725Z,99.99
2017-05-09T02:03:40.513Z,99.99
2017-05-09T02:05:07.380Z,99.99
2017-05-09T02:06:33.773Z,99.99
2017-05-09T02:07:46.571Z,99.99
2017-05-09T02:08:59.573Z,99.99
2017-05-09T02:10:12.365Z,99.88
2017-05-09T02:11:25.268Z,99.98
2017-05-09T02:12:38.442Z,99.99
2017-05-09T02:13:51.272Z,99.99
2017-05-09T02:15:04.094Z,99.99
2017-05-09T02:16:16.485Z,99.99
2017-05-09T02:17:29.529Z,99.99
2017-05-09T02:18:41.889Z,99.99
2017-05-09T02:19:54.519Z,99.99
2017-05-09T02:21:06.842Z,99.99
2017-05-09T02:22:19.164Z,99.99
2017-05-09T02:23:31.971Z,99.99
2017-05-09T02:24:44.792Z,99.99
2017-05-09T02:25:57.579Z,99.99
2017-05-09T02:27:10.390Z,99.99
2017-05-09T02:28:23.192Z,99.99
2017-05-09T02:29:35.989Z,99.99
2017-05-09T02:30:48.982Z,99.99
2017-05-09T02:32:01.776Z,99.99
2017-05-09T02:33:14.090Z,99.99
2017-05-09T02:34:26.881Z,99.99
2017-05-09T02:35:39.681Z,99.99
2017-05-09T02:36:52.477Z,99.99
2017-05-09T02:38:05.268Z,99.99
2017-05-09T02:39:18.067Z,99.99
2017-05-09T02:40:30.861Z,99.99
2017-05-09T02:41:43.862Z,99.99
2017-05-09T02:42:56.656Z,99.99
2017-05-09T02:44:09.453Z,99.99
2017-05-09T02:45:22.242Z,99.99
2017-05-09T02:46:35.035Z,99.99
2017-05-09T02:47:48.036Z,99.99
2017-05-09T02:49:00.836Z,99.99
2017-05-09T02:50:13.635Z,99.99
2017-05-09T02:51:26.451Z,99.99
2017-05-09T02:52:39.253Z,99.99
2017-05-09T02:53:52.054Z,99.99
2017-05-09T02:55:04.859Z,99.99
2017-05-09T02:56:17.655Z,99.99
2017-05-09T02:57:30.448Z,99.99
2017-05-09T02:58:43.437Z,99.99
2017-05-09T02:59:56.230Z,99.99
2017-05-09T03:01:09.021Z,99.99
2017-05-09T03:02:21.323Z,99.99
2017-05-09T03:03:33.840Z,99.99
2017-05-09T03:04:46.628Z,99.99
2017-05-09T03:05:59.430Z,99.99
2017-05-09T03:07:12.232Z,99.99
2017-05-09T03:08:25.035Z,99.99
2017-05-09T03:09:51.905Z,99.99
2017-05-09T03:11:04.703Z,99.99
2017-05-09T03:12:17.501Z,99.99
2017-05-09T03:13:30.304Z,99.99
2017-05-09T03:14:43.099Z,99.99
2017-05-09T03:15:55.885Z,99.99
2017-05-09T03:17:08.669Z,99.99
2017-05-09T03:18:21.470Z,99.99
2017-05-09T03:19:34.270Z,99.99
2017-05-09T03:20:47.054Z,99.99
2017-05-09T03:21:59.847Z,99.99
2017-05-09T03:23:12.640Z,99.99
2017-05-09T03:24:25.437Z,99.99
2017-05-09T03:25:37.947Z,99.99
2017-05-09T03:26:50.248Z,99.99
2017-05-09T03:28:03.045Z,99.99
2017-05-09T03:29:15.841Z,99.99
2017-05-09T03:30:28.145Z,99.99
2017-05-09T03:31:40.928Z,99.99
2017-05-09T03:32:53.715Z,99.99
2017-05-09T03:34:06.510Z,99.99
2017-05-09T03:35:19.298Z,99.99
2017-05-09T03:36:32.287Z,99.99
2017-05-09T03:37:44.595Z,99.99
2017-05-09T03:38:57.393Z,99.99
2017-05-09T03:40:10.188Z,99.99
2017-05-09T03:41:22.495Z,99.99
2017-05-09T03:42:35.104Z,99.99
2017-05-09T03:43:47.416Z,99.99
2017-05-09T03:45:00.210Z,99.99
2017-05-09T03:46:13.025Z,99.99
2017-05-09T03:47:25.806Z,99.99
2017-05-09T03:48:38.591Z,99.99
2017-05-09T03:49:51.384Z,99.99
2017-05-09T03:51:03.690Z,99.99
2017-05-09T03:52:16.474Z,99.99
2017-05-09T03:53:29.253Z,99.99
2017-05-09T03:54:42.047Z,99.99
2017-05-09T03:55:54.830Z,99.99
2017-05-09T03:57:07.618Z,99.99
2017-05-09T03:58:20.400Z,99.99
2017-05-09T03:59:32.701Z,99.99
2017-05-09T04:00:45.490Z,99.99
2017-05-09T04:01:58.277Z,99.99
2017-05-09T04:03:10.576Z,99.99
2017-05-09T04:04:22.406Z,99.99
2017-05-09T04:05:35.192Z,99.99
2017-05-09T04:06:47.978Z,99.99
2017-05-09T04:08:00.765Z,99.99
2017-05-09T04:09:13.546Z,99.99
2017-05-09T04:10:26.343Z,99.99
2017-05-09T04:11:39.138Z,99.99
2017-05-09T04:12:51.442Z,99.99
2017-05-09T04:14:04.233Z,99.99
2017-05-09T04:15:16.052Z,99.99
2017-05-09T04:16:28.835Z,99.99
2017-05-09T04:17:41.614Z,99.93
2017-05-09T04:18:54.393Z,99.73
2017-05-09T04:20:07.410Z,99.98
2017-05-09T04:21:19.713Z,99.54
2017-05-09T04:22:32.528Z,99.98
2017-05-09T04:23:45.322Z,99.99
2017-05-09T04:24:58.104Z,99.99
2017-05-09T04:26:10.892Z,99.99
2017-05-09T04:27:23.677Z,99.99
2017-05-09T04:28:36.462Z,99.99
2017-05-09T04:29:49.242Z,99.99
2017-05-09T04:31:02.327Z,99.99
2017-05-09T04:32:14.144Z,99.99
2017-05-09T04:33:26.941Z,99.99
2017-05-09T04:34:39.726Z,99.99
2017-05-09T04:35:52.507Z,99.99
2017-05-09T04:37:05.487Z,99.99
2017-05-09T04:38:18.268Z,99.99
2017-05-09T04:39:31.050Z,99.99
2017-05-09T04:40:43.871Z,99.99
2017-05-09T04:41:56.655Z,99.99
2017-05-09T04:43:09.441Z,99.99
2017-05-09T04:44:21.738Z,99.99
2017-05-09T04:45:34.521Z,99.99
2017-05-09T04:46:46.384Z,99.99
2017-05-09T04:47:59.467Z,99.99
2017-05-09T04:49:11.761Z,99.99
2017-05-09T04:50:24.062Z,99.99
2017-05-09T04:51:36.844Z,99.99
2017-05-09T04:52:49.930Z,99.99
2017-05-09T04:54:02.722Z,99.99
2017-05-09T04:55:15.514Z,99.99
2017-05-09T04:56:28.295Z,99.99
2017-05-09T04:57:41.086Z,99.99
2017-05-09T04:58:53.867Z,99.99
2017-05-09T05:00:06.654Z,99.99
2017-05-09T05:01:18.953Z,99.99
2017-05-09T05:02:31.742Z,99.99
2017-05-09T05:03:44.523Z,99.99
2017-05-09T05:04:56.830Z,99.99
2017-05-09T05:06:09.626Z,99.99
2017-05-09T05:07:21.933Z,99.99
2017-05-09T05:08:34.726Z,99.99
2017-05-09T05:09:47.805Z,99.99
2017-05-09T05:11:00.105Z,99.99
2017-05-09T05:12:12.888Z,99.99
2017-05-09T05:13:25.186Z,99.99
2017-05-09T05:14:38.166Z,99.99
2017-05-09T05:15:50.955Z,99.99
2017-05-09T05:17:03.738Z,99.99
2017-05-09T05:18:16.528Z,99.99
2017-05-09T05:19:29.311Z,99.99
2017-05-09T05:20:42.437Z,99.99
2017-05-09T05:21:55.216Z,99.99
2017-05-09T05:23:07.518Z,99.99
2017-05-09T05:24:19.815Z,99.99
2017-05-09T05:25:32.122Z,99.99
2017-05-09T05:26:44.419Z,99.99
2017-05-09T05:27:56.725Z,99.99
2017-05-09T05:29:09.513Z,99.99
2017-05-09T05:30:22.295Z,99.99
2017-05-09T05:31:35.290Z,99.99
2017-05-09T05:32:48.074Z,99.99
2017-05-09T05:34:00.859Z,99.99
2017-05-09T05:35:13.635Z,99.99
2017-05-09T05:36:25.938Z,99.99
2017-05-09T05:37:38.723Z,99.99
2017-05-09T05:38:51.519Z,99.99
2017-05-09T05:40:03.814Z,99.99
2017-05-09T05:41:16.593Z,99.99
2017-05-09T05:42:28.892Z,99.99
2017-05-09T05:43:41.675Z,99.99
2017-05-09T05:44:54.461Z,99.99
2017-05-09T05:46:07.243Z,99.99
2017-05-09T05:47:19.541Z,99.99
2017-05-09T05:48:32.321Z,99.99
2017-05-09T05:49:45.124Z,99.99
2017-05-09T05:50:57.904Z,99.99
2017-05-09T05:52:10.687Z,99.99
2017-05-09T05:53:23.296Z,99.99
2017-05-09T05:54:36.083Z,99.99
2017-05-09T05:55:48.871Z,99.99
2017-05-09T05:57:01.657Z,99.99
2017-05-09T05:58:13.474Z,99.99
2017-05-09T05:59:26.254Z,99.99
2017-05-09T06:00:38.551Z,99.99
2017-05-09T06:01:51.333Z,99.99
2017-05-09T06:03:04.119Z,99.99
2017-05-09T06:04:17.101Z,99.99
2017-05-09T06:05:29.888Z,99.99
2017-05-09T06:06:42.673Z,99.99
2017-05-09T06:07:55.454Z,99.99
2017-05-09T06:09:08.250Z,99.99
2017-05-09T06:10:21.036Z,99.99
2017-05-09T06:11:33.816Z,99.99
2017-05-09T06:12:46.604Z,99.99
2017-05-09T06:13:59.402Z,99.99
2017-05-09T06:15:12.019Z,99.99
2017-05-09T06:16:24.803Z,99.99
2017-05-09T06:17:37.583Z,99.99
2017-05-09T06:18:49.411Z,99.99
2017-05-09T06:20:01.710Z,99.99
2017-05-09T06:21:14.011Z,99.99
2017-05-09T06:22:26.791Z,99.99
2017-05-09T06:23:39.096Z,99.99
2017-05-09T06:24:51.880Z,99.99
2017-05-09T06:26:04.962Z,99.99
2017-05-09T06:27:17.742Z,99.99
2017-05-09T06:28:30.533Z,99.99
2017-05-09T06:29:43.323Z,99.99
2017-05-09T06:30:55.630Z,99.99
2017-05-09T06:32:08.411Z,99.99
2017-05-09T06:33:21.212Z,99.99
2017-05-09T06:34:33.992Z,99.99
2017-05-09T06:35:46.293Z,99.99
2017-05-09T06:36:58.595Z,99.99
2017-05-09T06:38:11.374Z,99.99
2017-05-09T06:39:23.681Z,99.99
2017-05-09T06:40:36.465Z,99.99
2017-05-09T06:41:49.453Z,99.99
2017-05-09T06:43:02.247Z,99.99
2017-05-09T06:44:14.558Z,99.99
2017-05-09T06:45:27.347Z,99.99
2017-05-09T06:46:40.138Z,99.99
2017-05-09T06:48:06.993Z,99.99
2017-05-09T06:49:19.298Z,99.99
2017-05-09T06:50:32.082Z,99.99
2017-05-09T06:51:44.862Z,99.99
2017-05-09T06:52:56.988Z,99.99
2017-05-09T06:54:09.292Z,99.99
2017-05-09T06:55:21.589Z,99.99
2017-05-09T06:56:34.369Z,99.99
2017-05-09T06:57:46.867Z,99.99
2017-05-09T06:58:59.646Z,99.99
2017-05-09T07:00:12.424Z,99.99
2017-05-09T07:01:25.207Z,99.99
2017-05-09T07:02:37.503Z,99.99
2017-05-09T07:03:49.802Z,99.99
2017-05-09T07:05:02.105Z,99.99
2017-05-09T07:06:14.884Z,99.99
2017-05-09T07:07:27.182Z,99.99
2017-05-09T07:08:39.971Z,99.99
2017-05-09T07:09:52.271Z,99.99
2017-05-09T07:11:05.054Z,99.99
2017-05-09T07:12:17.839Z,99.99
2017-05-09T07:13:30.140Z,99.99
2017-05-09T07:14:43.225Z,99.99
2017-05-09T07:15:55.527Z,99.99
2017-05-09T07:17:07.829Z,99.99
2017-05-09T07:18:20.608Z,99.99
2017-05-09T07:19:33.397Z,99.99
2017-05-09T07:20:45.700Z,99.99
2017-05-09T07:21:58.482Z,99.99
2017-05-09T07:23:10.784Z,99.99
2017-05-09T07:24:23.559Z,99.99
2017-05-09T07:25:36.338Z,99.99
2017-05-09T07:26:49.120Z,99.99
2017-05-09T07:28:01.915Z,99.99
2017-05-09T07:29:14.215Z,99.99
2017-05-09T07:30:27.198Z,99.99
2017-05-09T07:31:39.978Z,99.99
2017-05-09T07:32:52.763Z,99.99
2017-05-09T07:34:05.062Z,99.99
2017-05-09T07:35:17.359Z,99.99
2017-05-09T07:36:30.447Z,99.99
2017-05-09T07:37:42.263Z,99.99
2017-05-09T07:38:55.042Z,99.99
2017-05-09T07:40:07.824Z,99.99
2017-05-09T07:41:20.424Z,99.99
2017-05-09T07:42:33.210Z,99.99
2017-05-09T07:43:45.031Z,99.99
2017-05-09T07:44:57.856Z,99.99
2017-05-09T07:46:10.156Z,99.99
2017-05-09T07:47:22.938Z,99.99
2017-05-09T07:48:35.724Z,99.99
2017-05-09T07:49:48.502Z,99.99
2017-05-09T07:51:01.286Z,99.99
2017-05-09T07:52:13.791Z,99.99
2017-05-09T07:53:26.586Z,99.99
2017-05-09T07:54:39.364Z,99.99
2017-05-09T07:55:52.146Z,99.99
2017-05-09T07:57:04.439Z,99.99
2017-05-09T07:58:17.521Z,99.99
2017-05-09T07:59:30.307Z,99.99
2017-05-09T08:00:42.121Z,99.99
2017-05-09T08:01:54.906Z,99.99
2017-05-09T08:03:07.887Z,99.99
2017-05-09T08:04:20.675Z,99.99
2017-05-09T08:05:32.985Z,99.99
2017-05-09T08:06:45.763Z,99.99
2017-05-09T08:07:58.543Z,99.99
2017-05-09T08:09:10.562Z,99.99
2017-05-09T08:10:23.351Z,99.99
2017-05-09T08:11:35.650Z,99.99
2017-05-09T08:12:48.433Z,99.99
2017-05-09T08:14:01.412Z,99.99
2017-05-09T08:15:13.710Z,99.99
2017-05-09T08:16:26.512Z,99.99
2017-05-09T08:17:38.810Z,99.99
2017-05-09T08:18:51.592Z,99.99
2017-05-09T08:20:04.386Z,99.99
2017-05-09T08:21:16.201Z,99.99
2017-05-09T08:22:28.018Z,99.99
2017-05-09T08:23:40.798Z,99.99
2017-05-09T08:24:53.881Z,99.99
2017-05-09T08:26:06.660Z,99.99
2017-05-09T08:27:19.440Z,99.99
2017-05-09T08:28:31.738Z,99.99
2017-05-09T08:29:44.518Z,99.99
2017-05-09T08:30:57.607Z,99.99
2017-05-09T08:32:09.903Z,99.99
2017-05-09T08:33:21.244Z,99.99
2017-05-09T08:34:34.027Z,99.99
2017-05-09T08:35:46.325Z,99.99
2017-05-09T08:36:59.105Z,99.99
2017-05-09T08:38:11.899Z,99.99
2017-05-09T08:39:24.686Z,99.99
2017-05-09T08:40:36.991Z,99.99
2017-05-09T08:41:50.030Z,99.99
2017-05-09T08:43:02.811Z,99.99
2017-05-09T08:44:14.627Z,99.99
2017-05-09T08:45:27.407Z,99.99
2017-05-09T08:46:40.388Z,99.99
2017-05-09T08:47:53.173Z,99.99
2017-05-09T08:49:05.474Z,99.99
2017-05-09T08:50:18.303Z,99.99
2017-05-09T08:51:30.604Z,99.99
2017-05-09T08:52:43.685Z,99.99
2017-05-09T08:53:55.504Z,99.99
2017-05-09T08:55:08.286Z,99.99
2017-05-09T08:56:21.070Z,99.99
2017-05-09T08:57:33.676Z,99.99
2017-05-09T08:58:46.460Z,99.99
2017-05-09T08:59:59.241Z,99.99
2017-05-09T09:01:11.538Z,99.99
2017-05-09T09:02:24.318Z,99.99
2017-05-09T09:03:37.294Z,99.99
2017-05-09T09:04:50.074Z,99.99
2017-05-09T09:06:02.374Z,99.99
2017-05-09T09:07:14.192Z,99.99
2017-05-09T09:08:26.692Z,99.99
2017-05-09T09:09:39.473Z,99.99
2017-05-09T09:10:52.250Z,99.99
2017-05-09T09:12:04.553Z,99.99
2017-05-09T09:13:17.331Z,99.99
2017-05-09T09:14:29.635Z,99.99
2017-05-09T09:15:42.413Z,99.99
2017-05-09T09:16:55.189Z,99.99
2017-05-09T09:18:07.969Z,99.99
2017-05-09T09:19:19.787Z,99.99
2017-05-09T09:20:32.604Z,99.99
2017-05-09T09:21:45.388Z,99.99
2017-05-09T09:22:57.685Z,99.99
2017-05-09T09:24:10.464Z,99.99
2017-05-09T09:25:23.550Z,99.99
2017-05-09T09:26:36.331Z,99.99
2017-05-09T09:27:49.116Z,99.99
2017-05-09T09:29:01.416Z,99.99
2017-05-09T09:30:14.199Z,99.99
2017-05-09T09:31:26.978Z,99.99
2017-05-09T09:32:39.763Z,99.99
2017-05-09T09:33:52.539Z,99.99
2017-05-09T09:35:05.318Z,99.99
2017-05-09T09:36:17.812Z,99.99
2017-05-09T09:37:30.108Z,99.99
2017-05-09T09:38:42.891Z,99.99
2017-05-09T09:39:55.669Z,99.99
2017-05-09T09:41:22.049Z,99.99
2017-05-09T09:42:34.350Z,99.99
2017-05-09T09:43:47.129Z,99.99
2017-05-09T09:44:59.429Z,99.99
2017-05-09T09:46:12.413Z,99.99
2017-05-09T09:47:24.267Z,99.99
2017-05-09T09:48:37.047Z,99.99
2017-05-09T09:49:49.346Z,99.99
2017-05-09T09:51:02.145Z,99.99
2017-05-09T09:52:13.481Z,99.99
2017-05-09T09:53:25.816Z,99.99
2017-05-09T09:54:37.633Z,99.99
2017-05-09T09:55:50.423Z,99.99
2017-05-09T09:57:03.399Z,99.99
2017-05-09T09:58:15.224Z,99.99
2017-05-09T09:59:28.002Z,99.99
2017-05-09T10:00:40.791Z,99.99
2017-05-09T10:01:53.570Z,99.99
2017-05-09T10:03:06.549Z,99.99
2017-05-09T10:04:18.850Z,99.99
2017-05-09T10:05:31.632Z,99.99
2017-05-09T10:06:43.929Z,99.99
2017-05-09T10:07:56.912Z,99.99
2017-05-09T10:09:09.206Z,99.99
2017-05-09T10:10:21.027Z,99.99
2017-05-09T10:11:33.323Z,99.99
2017-05-09T10:12:46.108Z,99.99
2017-05-09T10:13:58.902Z,99.99
2017-05-09T10:15:11.682Z,99.99
2017-05-09T10:16:24.469Z,99.99
2017-05-09T10:17:36.769Z,99.99
2017-05-09T10:18:49.552Z,99.99
2017-05-09T10:20:02.341Z,99.99
2017-05-09T10:21:14.638Z,99.99
2017-05-09T10:22:26.987Z,99.99
2017-05-09T10:23:39.769Z,99.99
2017-05-09T10:24:52.550Z,99.99
2017-05-09T10:26:05.332Z,99.99
2017-05-09T10:27:18.115Z,99.99
2017-05-09T10:28:30.892Z,99.99
2017-05-09T10:29:43.678Z,99.99
2017-05-09T10:30:56.462Z,99.99
2017-05-09T10:32:09.244Z,99.99
2017-05-09T10:33:22.029Z,99.99
2017-05-09T10:34:34.337Z,99.99
2017-05-09T10:35:47.121Z,99.99
2017-05-09T10:36:58.467Z,99.99
2017-05-09T10:38:10.766Z,99.99
2017-05-09T10:39:23.551Z,99.99
2017-05-09T10:40:36.339Z,99.99
2017-05-09T10:41:49.124Z,99.99
2017-05-09T10:43:01.923Z,99.99
2017-05-09T10:44:14.226Z,99.99
2017-05-09T10:45:27.019Z,99.99
2017-05-09T10:46:39.798Z,99.99
2017-05-09T10:47:52.579Z,99.99
2017-05-09T10:49:05.367Z,99.99
2017-05-09T10:50:17.667Z,99.99
2017-05-09T10:51:30.002Z,99.99
2017-05-09T10:52:42.788Z,99.99
2017-05-09T10:53:55.097Z,99.99
2017-05-09T10:55:07.879Z,99.99
2017-05-09T10:56:19.227Z,99.99
2017-05-09T10:57:31.526Z,99.99
2017-05-09T10:58:43.841Z,99.99
2017-05-09T10:59:56.622Z,99.99
2017-05-09T11:01:09.404Z,99.99
2017-05-09T11:02:21.699Z,99.99
2017-05-09T11:03:33.993Z,99.99
2017-05-09T11:04:46.772Z,99.99
2017-05-09T11:05:59.083Z,99.99
2017-05-09T11:07:11.381Z,99.99
2017-05-09T11:08:24.026Z,99.99
2017-05-09T11:09:36.810Z,99.99
2017-05-09T11:10:49.591Z,99.99
2017-05-09T11:12:02.368Z,99.99
2017-05-09T11:13:14.676Z,99.99
2017-05-09T11:14:26.996Z,99.99
2017-05-09T11:15:39.293Z,99.99
2017-05-09T11:16:52.085Z,99.99
2017-05-09T11:18:04.863Z,99.99
2017-05-09T11:19:17.641Z,99.99
2017-05-09T11:20:30.432Z,99.99
2017-05-09T11:21:43.208Z,99.99
2017-05-09T11:22:56.002Z,99.99
2017-05-09T11:24:09.129Z,99.99
2017-05-09T11:25:21.906Z,99.99
2017-05-09T11:26:34.685Z,99.99
2017-05-09T11:27:47.465Z,99.99
2017-05-09T11:28:59.761Z,99.99
2017-05-09T11:30:25.656Z,99.99
2017-05-09T11:31:38.436Z,99.99
2017-05-09T11:32:51.220Z,99.99
2017-05-09T11:34:04.006Z,99.99
2017-05-09T11:35:16.788Z,99.99
2017-05-09T11:36:29.610Z,99.99
2017-05-09T11:37:41.912Z,99.99
2017-05-09T11:38:54.694Z,99.99
2017-05-09T11:40:21.549Z,99.99
2017-05-09T11:41:34.326Z,99.99
2017-05-09T11:42:46.633Z,99.99
2017-05-09T11:43:59.408Z,99.99
2017-05-09T11:45:11.711Z,99.99
2017-05-09T11:46:24.005Z,99.99
2017-05-09T11:47:35.825Z,99.99
2017-05-09T11:48:48.608Z,99.99
2017-05-09T11:50:01.389Z,99.99
2017-05-09T11:51:14.176Z,99.99
2017-05-09T11:52:26.485Z,99.99
2017-05-09T11:53:38.317Z,99.44
2017-05-09T11:54:51.104Z,98.1
2017-05-09T11:56:04.194Z,97.66
2017-05-09T11:57:16.502Z,97.19
2017-05-09T11:58:29.293Z,96.7
2017-05-09T11:59:42.080Z,96.8
2017-05-09T12:00:54.383Z,96.27
2017-05-09T12:02:07.364Z,96.32
2017-05-09T12:03:19.189Z,96.17
2017-05-09T12:04:31.499Z,96.27
2017-05-09T12:05:44.288Z,95.79
2017-05-09T12:06:57.087Z,94.93
2017-05-09T12:08:09.397Z,94.11
2017-05-09T12:09:22.188Z,94.3
2017-05-09T12:10:34.988Z,94.01
2017-05-09T12:11:47.783Z,93.29
2017-05-09T12:13:00.879Z,93.19
2017-05-09T12:14:13.188Z,92.43
2017-05-09T12:15:25.987Z,91.27
2017-05-09T12:16:38.782Z,90.35
2017-05-09T12:17:51.710Z,89.97
2017-05-09T12:19:04.497Z,88.91
2017-05-09T12:20:16.805Z,88.53
2017-05-09T12:21:29.112Z,87.85
2017-05-09T12:22:41.908Z,88.14
2017-05-09T12:23:54.712Z,88.53
2017-05-09T12:25:07.335Z,87.66
2017-05-09T12:26:19.166Z,86.55
2017-05-09T12:27:31.481Z,86.35
2017-05-09T12:28:43.787Z,85.87
2017-05-09T12:29:56.873Z,85.78
2017-05-09T12:31:09.662Z,84.62
2017-05-09T12:32:21.976Z,84.66
2017-05-09T12:33:34.765Z,83.41
2017-05-09T12:34:47.554Z,83.7
2017-05-09T12:36:00.340Z,83.31
2017-05-09T12:37:13.134Z,82.64
2017-05-09T12:38:25.444Z,82.49
2017-05-09T12:39:38.232Z,82.1
2017-05-09T12:40:51.316Z,81.33
2017-05-09T12:42:04.119Z,81.04
2017-05-09T12:43:15.940Z,79.64
2017-05-09T12:44:28.259Z,79.25
2017-05-09T12:45:41.050Z,78.91
2017-05-09T12:46:53.360Z,78.71
2017-05-09T12:48:06.157Z,79
2017-05-09T12:49:19.150Z,77.94
2017-05-09T12:50:31.939Z,77.65
2017-05-09T12:51:43.761Z,76.4
2017-05-09T12:52:56.564Z,76.2
2017-05-09T12:54:09.365Z,76.5
2017-05-09T12:55:22.154Z,75.53
2017-05-09T12:56:34.461Z,75.82
2017-05-09T12:57:47.280Z,76.65
2017-05-09T12:58:59.591Z,76.17
2017-05-09T13:00:12.387Z,74.95
2017-05-09T13:01:24.692Z,75.62
2017-05-09T13:02:37.004Z,75.62
2017-05-09T13:03:49.801Z,75.05
2017-05-09T13:05:02.596Z,74.12
2017-05-09T13:06:14.437Z,74.31
2017-05-09T13:07:27.232Z,74.12
2017-05-09T13:08:40.035Z,74.41
2017-05-09T13:09:52.832Z,73.73
2017-05-09T13:11:05.825Z,73.19
2017-05-09T13:12:18.628Z,72.26
2017-05-09T13:13:31.435Z,71
2017-05-09T13:14:43.753Z,71.3
2017-05-09T13:15:56.554Z,71.3
2017-05-09T13:17:08.864Z,72.64
2017-05-09T13:18:21.660Z,72.26
2017-05-09T13:19:34.458Z,70.62
2017-05-09T13:20:47.247Z,71.1
2017-05-09T13:22:00.042Z,71.1
2017-05-09T13:23:11.875Z,69.26
2017-05-09T13:24:24.679Z,70.14
2017-05-09T13:25:36.994Z,69.46
2017-05-09T13:26:49.787Z,67.97
2017-05-09T13:28:02.121Z,67.43
2017-05-09T13:29:14.448Z,67.52
2017-05-09T13:30:27.263Z,66.94
2017-05-09T13:31:40.255Z,66.46
2017-05-09T13:32:53.047Z,66.36
2017-05-09T13:34:05.363Z,66.56
2017-05-09T13:35:18.159Z,66.46
2017-05-09T13:36:30.953Z,64.43
2017-05-09T13:37:43.263Z,64.37
2017-05-09T13:38:56.074Z,65.14
2017-05-09T13:40:08.883Z,64.76
2017-05-09T13:41:21.199Z,64.56
2017-05-09T13:42:34.195Z,62.82
2017-05-09T13:43:46.515Z,62.92
2017-05-09T13:44:59.324Z,62.53
2017-05-09T13:46:11.648Z,60.99
2017-05-09T13:47:24.457Z,62.73
2017-05-09T13:48:37.250Z,62.34
2017-05-09T13:49:49.569Z,62.92
2017-05-09T13:51:01.902Z,62.73
2017-05-09T13:52:14.702Z,62.44
2017-05-09T13:53:27.698Z,63.4
2017-05-09T13:54:40.530Z,63.02
2017-05-09T13:55:52.851Z,63.31
2017-05-09T13:57:05.167Z,62.76
2017-05-09T13:58:17.484Z,62.76
2017-05-09T13:59:30.288Z,62.95
2017-05-09T14:00:43.098Z,61.05
2017-05-09T14:01:55.904Z,59.98
2017-05-09T14:03:08.701Z,59.63
2017-05-09T14:04:21.500Z,58.07
2017-05-09T14:05:34.298Z,57.69
2017-05-09T14:06:47.096Z,56.52
2017-05-09T14:07:59.894Z,55.3
2017-05-09T14:09:12.690Z,54.79
2017-05-09T14:10:25.204Z,54.88
2017-05-09T14:11:38.008Z,55.46
2017-05-09T14:12:50.797Z,54.98
2017-05-09T14:14:03.590Z,55.17
2017-05-09T14:15:15.907Z,53.85
2017-05-09T14:16:28.707Z,54.59
2017-05-09T14:17:41.073Z,54.49
2017-05-09T14:18:53.867Z,53.63
2017-05-09T14:20:05.701Z,52.95
2017-05-09T14:21:17.533Z,53.45
2017-05-09T14:22:30.331Z,54.88
2017-05-09T14:23:43.182Z,54.59
2017-05-09T14:24:55.990Z,55.07
2017-05-09T14:26:08.794Z,54.98
2017-05-09T14:27:21.126Z,54.79
2017-05-09T14:28:33.430Z,55.2
2017-05-09T14:29:45.744Z,55.3
2017-05-09T14:30:58.536Z,54.52
2017-05-09T14:32:10.854Z,53.55
2017-05-09T14:33:23.652Z,54.23
2017-05-09T14:34:36.443Z,53.94
2017-05-09T14:35:49.240Z,53.65
2017-05-09T14:37:02.091Z,52.49
2017-05-09T14:38:13.967Z,49.97
2017-05-09T14:39:26.756Z,50.26
2017-05-09T14:40:39.545Z,50.84
2017-05-09T14:41:52.341Z,50.84
2017-05-09T14:43:05.239Z,51.04
2017-05-09T14:44:17.543Z,51.72
2017-05-09T14:45:30.335Z,53.45
2017-05-09T14:46:43.151Z,54.03
2017-05-09T14:47:55.966Z,54.62
2017-05-09T14:49:08.774Z,55.58
2017-05-09T14:50:21.564Z,55.49
2017-05-09T14:51:34.366Z,56.34
2017-05-09T14:52:47.167Z,57.01
2017-05-09T14:54:00.006Z,56.6
2017-05-09T14:55:12.797Z,57.18
2017-05-09T14:56:25.105Z,57.37
2017-05-09T14:57:37.953Z,56.7
2017-05-09T14:58:50.318Z,56.98
2017-05-09T15:00:03.102Z,56.7
2017-05-09T15:01:14.932Z,56.7
2017-05-09T15:02:27.731Z,55.24
2017-05-09T15:03:40.054Z,55.73
2017-05-09T15:04:52.361Z,56.02
2017-05-09T15:06:04.674Z,55.82
2017-05-09T15:07:17.468Z,52.44
2017-05-09T15:08:30.263Z,52.44
2017-05-09T15:09:43.302Z,53.41
2017-05-09T15:10:56.092Z,53.96
2017-05-09T15:12:08.892Z,53.57
2017-05-09T15:13:21.209Z,53.89
2017-05-09T15:14:34.005Z,53.28
2017-05-09T15:15:45.833Z,53.09
2017-05-09T15:16:58.636Z,52.99
2017-05-09T15:18:11.430Z,53.47
2017-05-09T15:19:24.232Z,53.47
2017-05-09T15:20:37.321Z,54.05
2017-05-09T15:21:50.114Z,54.05
2017-05-09T15:23:02.921Z,54.73
2017-05-09T15:24:15.710Z,54.53
2017-05-09T15:25:28.022Z,54.05
2017-05-09T15:26:40.812Z,53.86
2017-05-09T15:27:53.609Z,53.41
2017-05-09T15:29:05.932Z,51.83
2017-05-09T15:30:18.242Z,53.21
2017-05-09T15:31:31.234Z,52.82
2017-05-09T15:32:44.035Z,51.56
2017-05-09T15:33:56.832Z,51.95
2017-05-09T15:35:09.626Z,51.54
2017-05-09T15:36:21.931Z,51.56
2017-05-09T15:37:35.028Z,51.56